Euskara    
Meteorología y climatología de Navarra
Datos de la estación - Meteo Navarra

Estación de Eltzaburu GN

Altitud 588 m.


Datos desde el 22/11/2020 hasta el 23/11/2020 en horario solar
Los datos son PROVISIONALES

Anterior Página 1 de 1 Siguiente Descargar: Formato para Excel 2000 o superior   Formato csv   Formato para OpenOffice Calc
Fecha Temperatura Humedad relativa Radiación global Insolación Precipitación Vel. viento 10 m Vel. viento 10 m Dir. viento 10 m
°C % W/m² s l/m² m/s km/h °
22/11/2020 0:00 -0.2 92 0.0 0 0.0 0.1 0.4 165
22/11/2020 0:10 -0.4 92 0.0 0 0.0 0.0 0.0 146
22/11/2020 0:20 -0.9 93 0.0 0 0.0 0.1 0.3 126
22/11/2020 0:30 -1.0 94 0.0 0 0.0 0.2 0.8 350
22/11/2020 0:40 -0.7 95 0.0 0 0.0 0.2 0.7 76
22/11/2020 0:50 -0.8 94 0.0 0 0.0 0.3 0.9 151
22/11/2020 1:00 -1.1 94 0.0 0 0.0 0.8 2.7 124
22/11/2020 1:10 -1.0 95 0.0 0 0.0 0.1 0.5 113
22/11/2020 1:20 -1.2 95 0.0 0 0.0 0.4 1.3 340
22/11/2020 1:30 -1.0 96 0.0 0 0.0 0.5 1.7 301
22/11/2020 1:40 -1.4 95 0.0 0 0.0 0.2 0.6 276
22/11/2020 1:50 -1.4 96 0.0 0 0.0 0.2 0.6 251
22/11/2020 2:00 -1.2 96 0.0 0 0.0 0.3 1.0 301
22/11/2020 2:10 -1.3 96 0.0 0 0.0 0.0 0.1 255
22/11/2020 2:20 -1.4 96 0.0 0 0.0 0.0 0.0 171
22/11/2020 2:30 -1.7 96 0.0 0 0.0 0.0 0.0 0
22/11/2020 2:40 -1.6 97 0.0 0 0.0 0.1 0.3 152
22/11/2020 2:50 -1.3 97 0.0 0 0.0 0.2 0.8 187
22/11/2020 3:00 -1.2 97 0.0 0 0.0 0.2 0.7 161
22/11/2020 3:10 -1.6 97 0.0 0 0.0 0.0 0.1 163
22/11/2020 3:20 -1.6 97 0.0 0 0.0 0.0 0.0 0
22/11/2020 3:30 -1.8 97 0.0 0 0.0 0.1 0.3 43
22/11/2020 3:40 -1.7 97 0.0 0 0.0 0.1 0.4 115
22/11/2020 3:50 -2.0 97 0.0 0 0.0 0.5 1.9 349
22/11/2020 4:00 -1.7 97 0.0 0 0.0 0.3 0.9 160
22/11/2020 4:10 -2.1 97 0.0 0 0.0 0.2 0.8 126
22/11/2020 4:20 -2.1 97 0.0 0 0.0 0.2 0.8 160
22/11/2020 4:30 -2.3 97 0.0 0 0.0 0.3 0.9 1
22/11/2020 4:40 -2.2 97 0.0 0 0.0 0.1 0.2 313
22/11/2020 4:50 -2.1 97 0.0 0 0.0 0.0 0.0 0
22/11/2020 5:00 -1.8 98 0.0 0 0.0 0.1 0.3 145
22/11/2020 5:10 -2.0 97 0.0 0 0.0 0.5 1.9 125
22/11/2020 5:20 -1.9 97 0.0 0 0.0 0.1 0.4 220
22/11/2020 5:30 -2.0 98 0.0 0 0.0 0.1 0.3 252
22/11/2020 5:40 -2.1 97 0.0 0 0.0 0.0 0.0 0
22/11/2020 5:50 -2.3 97 0.0 0 0.0 0.0 0.0 170
22/11/2020 6:00 -2.0 98 0.0 0 0.0 0.1 0.2 149
22/11/2020 6:10 -2.1 98 0.0 0 0.0 0.0 0.0 43
22/11/2020 6:20 -2.1 98 0.0 0 0.0 0.0 0.0 0
22/11/2020 6:30 -2.0 98 0.0 0 0.0 0.1 0.5 143
22/11/2020 6:40 -2.0 98 0.0 0 0.0 0.5 1.7 136
22/11/2020 6:50 -2.4 97 0.0 0 0.0 0.1 0.4 110
22/11/2020 7:00 -2.7 97 0.0 0 0.0 0.1 0.4 126
22/11/2020 7:10 -2.8 97 0.0 0 0.0 0.0 0.1 127
22/11/2020 7:20 -2.8 98 0.0 0 0.0 0.0 0.0 142
22/11/2020 7:30 -3.2 97 0.0 0 0.0 0.0 0.1 143
22/11/2020 7:40 -3.4 97 3.9 0 0.0 0.0 0.1 165
22/11/2020 7:50 -3.2 97 19.9 0 0.0 0.0 0.0 0
22/11/2020 8:00 -2.9 98 29.9 0 0.0 0.2 0.8 311
22/11/2020 8:10 -2.6 98 45.2 0 0.0 0.0 0.0 0
22/11/2020 8:20 -2.4 98 31.7 0 0.0 0.0 0.0 0
22/11/2020 8:30 -2.2 98 62.9 46 0.0 0.0 0.0 0
22/11/2020 8:40 -2.0 98 80.1 4 0.0 0.1 0.3 229
22/11/2020 8:50 -1.7 98 43.5 0 0.0 0.0 0.0 221
22/11/2020 9:00 -1.3 98 237.9 540 0.0 0.1 0.5 232
22/11/2020 9:10 -0.2 98 280.9 600 0.0 0.2 0.6 233
22/11/2020 9:20 0.8 95 313.4 600 0.0 0.3 0.9 221
22/11/2020 9:30 1.8 91 359.7 600 0.0 0.1 0.5 246
22/11/2020 9:40 3.1 83 316.8 600 0.0 0.1 0.5 214
22/11/2020 9:50 3.7 84 324.8 600 0.0 0.5 1.9 197
22/11/2020 10:00 4.6 81 337.4 600 0.0 0.6 2.2 170
22/11/2020 10:10 5.1 79 361.9 600 0.0 0.9 3.1 203
22/11/2020 10:20 5.1 79 392.9 600 0.0 0.8 2.7 200
22/11/2020 10:30 5.8 79 414.7 600 0.0 0.9 3.2 211
22/11/2020 10:40 6.2 77 428.6 600 0.0 0.8 2.8 222
22/11/2020 10:50 7.0 75 439.8 600 0.0 0.6 2.1 206
22/11/2020 11:00 8.0 71 449.7 600 0.0 0.5 1.7 205
22/11/2020 11:10 8.5 71 457.9 600 0.0 1.3 4.8 203
22/11/2020 11:20 9.1 67 465.2 600 0.0 1.2 4.4 183
22/11/2020 11:30 9.6 64 469.4 600 0.0 1.3 4.6 186
22/11/2020 11:40 9.8 60 471.8 600 0.0 1.1 3.8 192
22/11/2020 11:50 10.2 55 473.6 600 0.0 1.5 5.3 177
22/11/2020 12:00 10.7 53 473.8 600 0.0 1.2 4.2 162
22/11/2020 12:10 10.8 51 471.4 600 0.0 1.5 5.5 176
22/11/2020 12:20 11.1 50 467.7 600 0.0 1.1 4.0 170
22/11/2020 12:30 11.3 49 460.7 600 0.0 1.4 5.1 181
22/11/2020 12:40 11.4 50 453.0 600 0.0 1.4 5.0 196
22/11/2020 12:50 11.5 49 445.0 600 0.0 1.2 4.4 182
22/11/2020 13:00 12.0 48 435.8 600 0.0 1.1 3.8 196
22/11/2020 13:10 12.7 45 424.2 600 0.0 0.7 2.5 176
22/11/2020 13:20 12.5 45 405.2 600 0.0 1.0 3.7 232
22/11/2020 13:30 12.5 47 395.5 600 0.0 1.4 4.9 208
22/11/2020 13:40 12.4 46 379.7 600 0.0 1.0 3.7 181
22/11/2020 13:50 13.1 44 368.3 600 0.0 1.1 4.0 173
22/11/2020 14:00 12.9 46 353.0 600 0.0 1.0 3.7 188
22/11/2020 14:10 13.1 45 332.8 600 0.0 1.0 3.7 163
22/11/2020 14:20 13.3 46 303.8 600 0.0 0.8 3.0 156
22/11/2020 14:30 13.7 46 286.6 600 0.0 0.9 3.3 169
22/11/2020 14:40 13.7 45 261.1 600 0.0 0.6 2.3 148
22/11/2020 14:50 13.4 48 242.0 600 0.0 1.0 3.7 180
22/11/2020 15:00 13.3 51 223.4 600 0.0 1.1 3.9 176
22/11/2020 15:10 13.1 51 198.2 600 0.0 1.1 3.8 176
22/11/2020 15:20 12.7 51 178.0 600 0.0 1.0 3.5 164
22/11/2020 15:30 13.2 48 149.9 600 0.0 0.6 2.0 157
22/11/2020 15:40 13.4 47 122.1 600 0.0 0.5 1.6 163
22/11/2020 15:50 13.1 48 95.4 600 0.0 0.4 1.6 142
22/11/2020 16:00 13.2 46 69.8 600 0.0 0.3 1.0 139
22/11/2020 16:10 13.5 45 46.5 600 0.0 0.3 1.0 160
22/11/2020 16:20 12.9 45 19.3 104 0.0 0.1 0.5 122
22/11/2020 16:30 11.8 49 0.0 0 0.0 0.2 0.7 118
22/11/2020 16:40 10.2 54 0.0 0 0.0 0.2 0.6 92
22/11/2020 16:50 9.3 57 0.0 0 0.0 0.2 0.6 172
22/11/2020 17:00 8.7 60 0.0 0 0.0 0.4 1.3 90
22/11/2020 17:10 8.7 61 0.0 0 0.0 0.4 1.4 91
22/11/2020 17:20 8.4 62 0.0 0 0.0 0.2 0.7 117
22/11/2020 17:30 7.8 64 0.0 0 0.0 0.0 0.1 158
22/11/2020 17:40 6.7 68 0.0 0 0.0 0.3 1.0 351
22/11/2020 17:50 5.9 72 0.0 0 0.0 0.7 2.4 304
22/11/2020 18:00 5.3 74 0.0 0 0.0 0.6 2.0 291
22/11/2020 18:10 5.3 75 0.0 0 0.0 0.4 1.5 321
22/11/2020 18:20 5.1 75 0.0 0 0.0 0.8 2.7 347
22/11/2020 18:30 5.7 72 0.0 0 0.0 0.3 0.9 292
22/11/2020 18:40 5.1 74 0.0 0 0.0 0.6 2.3 330
22/11/2020 18:50 5.1 75 0.0 0 0.0 0.6 2.3 317
22/11/2020 19:00 4.6 76 0.0 0 0.0 0.8 3.0 322
22/11/2020 19:10 4.5 76 0.0 0 0.0 0.3 0.9 315
22/11/2020 19:20 3.9 79 0.0 0 0.0 0.0 0.1 293
22/11/2020 19:30 3.2 83 0.0 0 0.0 0.8 3.0 314
22/11/2020 19:40 3.3 83 0.0 0 0.0 0.2 0.6 311
22/11/2020 19:50 3.6 80 0.0 0 0.0 0.2 0.8 292
22/11/2020 20:00 3.6 80 0.0 0 0.0 0.0 0.1 223
22/11/2020 20:10 3.4 80 0.0 0 0.0 0.1 0.2 319
22/11/2020 20:20 2.9 83 0.0 0 0.0 0.0 0.0 26
22/11/2020 20:30 2.7 84 0.0 0 0.0 0.2 0.6 314
22/11/2020 20:40 2.8 84 0.0 0 0.0 0.5 1.7 343
22/11/2020 20:50 2.9 83 0.0 0 0.0 0.1 0.3 57
22/11/2020 21:00 2.6 83 0.0 0 0.0 0.3 1.1 170
22/11/2020 21:10 1.6 87 0.0 0 0.0 0.1 0.5 167
22/11/2020 21:20 1.3 91 0.0 0 0.0 0.4 1.5 351
22/11/2020 21:30 1.5 91 0.0 0 0.0 0.5 1.8 349
22/11/2020 21:40 1.8 88 0.0 0 0.0 0.0 0.0 233
22/11/2020 21:50 1.1 90 0.0 0 0.0 0.1 0.2 0
22/11/2020 22:00 1.3 92 0.0 0 0.0 0.3 0.9 325
22/11/2020 22:10 1.3 92 0.0 0 0.0 0.1 0.2 174
22/11/2020 22:20 1.2 92 0.0 0 0.0 0.0 0.0 131
22/11/2020 22:30 1.0 93 0.0 0 0.0 0.0 0.1 47
22/11/2020 22:40 0.8 93 0.0 0 0.0 0.3 1.0 162
22/11/2020 22:50 0.2 93 0.0 0 0.0 0.1 0.4 329
22/11/2020 23:00 0.4 95 0.0 0 0.0 0.6 2.0 329
22/11/2020 23:10 0.7 95 0.0 0 0.0 0.4 1.4 290
22/11/2020 23:20 0.1 95 0.0 0 0.0 0.1 0.3 157
22/11/2020 23:30 0.1 95 0.0 0 0.0 0.1 0.2 110
22/11/2020 23:40 0.0 95 0.0 0 0.0 0.1 0.5 243
22/11/2020 23:50 -0.2 96 0.0 0 0.0 0.2 0.8 171
Anterior Página 1 de 1 Siguiente

NOTA: Tipo de datos según el color:
   - Valores diarios o 10 minutos correctos
   - Valores diarios calculados a partir de un número de datos 10 minutos menor que 144 y mayor que 120, o de un número de datos semihorarios menor que 48 y mayor que 40 (caso de las estaciones de INTIA Y Ministerio)
   - Valores diez minutos estimados


Contacto        Enlaces        Aviso legal